sensor_id;sensor_type;location;lat;lon;timestamp;P1;durP1;ratioP1;P2;durP2;ratioP2
69240;SDS011;56352;55.750;13.198;2023-12-22T00:01:27;7.25;;;1.42;;
69240;SDS011;56352;55.750;13.198;2023-12-22T00:03:54;7.10;;;1.60;;
69240;SDS011;56352;55.750;13.198;2023-12-22T00:06:21;3.17;;;1.00;;
69240;SDS011;56352;55.750;13.198;2023-12-22T00:08:47;1.58;;;0.75;;
69240;SDS011;56352;55.750;13.198;2023-12-22T00:11:14;3.22;;;0.73;;
69240;SDS011;56352;55.750;13.198;2023-12-22T00:13:41;1.80;;;0.73;;
69240;SDS011;56352;55.750;13.198;2023-12-22T00:16:08;3.08;;;0.80;;
69240;SDS011;56352;55.750;13.198;2023-12-22T00:18:35;7.28;;;1.25;;
69240;SDS011;56352;55.750;13.198;2023-12-22T00:21:02;13.25;;;1.38;;
69240;SDS011;56352;55.750;13.198;2023-12-22T00:23:29;8.15;;;1.35;;
69240;SDS011;56352;55.750;13.198;2023-12-22T00:25:56;14.85;;;2.63;;
69240;SDS011;56352;55.750;13.198;2023-12-22T00:28:23;13.70;;;2.30;;
69240;SDS011;56352;55.750;13.198;2023-12-22T00:30:49;13.25;;;2.08;;
69240;SDS011;56352;55.750;13.198;2023-12-22T00:33:16;12.07;;;2.17;;
69240;SDS011;56352;55.750;13.198;2023-12-22T00:35:42;10.90;;;2.58;;
69240;SDS011;56352;55.750;13.198;2023-12-22T00:38:09;17.80;;;3.05;;
69240;SDS011;56352;55.750;13.198;2023-12-22T00:40:36;11.75;;;2.28;;
69240;SDS011;56352;55.750;13.198;2023-12-22T00:43:03;14.88;;;2.83;;
69240;SDS011;56352;55.750;13.198;2023-12-22T00:45:32;10.20;;;2.13;;
69240;SDS011;56352;55.750;13.198;2023-12-22T00:47:58;12.73;;;2.22;;
69240;SDS011;56352;55.750;13.198;2023-12-22T00:50:25;19.80;;;2.85;;
69240;SDS011;56352;55.750;13.198;2023-12-22T00:52:52;9.00;;;2.00;;
69240;SDS011;56352;55.750;13.198;2023-12-22T00:55:18;15.68;;;2.40;;
69240;SDS011;56352;55.750;13.198;2023-12-22T00:57:45;13.45;;;2.47;;
69240;SDS011;56352;55.750;13.198;2023-12-22T01:00:12;15.45;;;1.92;;
69240;SDS011;56352;55.750;13.198;2023-12-22T01:02:39;13.27;;;2.53;;
69240;SDS011;56352;55.750;13.198;2023-12-22T01:05:06;17.15;;;3.28;;
69240;SDS011;56352;55.750;13.198;2023-12-22T01:07:33;17.20;;;2.05;;
69240;SDS011;56352;55.750;13.198;2023-12-22T01:10:00;8.15;;;1.63;;
69240;SDS011;56352;55.750;13.198;2023-12-22T01:12:28;11.85;;;1.95;;
69240;SDS011;56352;55.750;13.198;2023-12-22T01:14:55;9.43;;;1.77;;
69240;SDS011;56352;55.750;13.198;2023-12-22T01:17:22;13.10;;;2.38;;
69240;SDS011;56352;55.750;13.198;2023-12-22T01:19:49;8.98;;;1.67;;
69240;SDS011;56352;55.750;13.198;2023-12-22T01:22:17;9.18;;;1.50;;
69240;SDS011;56352;55.750;13.198;2023-12-22T01:24:44;9.50;;;2.03;;
69240;SDS011;56352;55.750;13.198;2023-12-22T01:27:12;7.15;;;1.80;;
69240;SDS011;56352;55.750;13.198;2023-12-22T01:29:39;13.52;;;1.75;;
69240;SDS011;56352;55.750;13.198;2023-12-22T01:32:06;10.20;;;1.27;;
69240;SDS011;56352;55.750;13.198;2023-12-22T01:34:32;8.95;;;1.83;;
69240;SDS011;56352;55.750;13.198;2023-12-22T01:36:59;15.57;;;2.55;;
69240;SDS011;56352;55.750;13.198;2023-12-22T01:39:26;12.02;;;1.92;;
69240;SDS011;56352;55.750;13.198;2023-12-22T01:41:55;8.82;;;1.55;;
69240;SDS011;56352;55.750;13.198;2023-12-22T01:44:22;9.23;;;1.50;;
69240;SDS011;56352;55.750;13.198;2023-12-22T01:46:49;11.93;;;1.95;;
69240;SDS011;56352;55.750;13.198;2023-12-22T01:49:16;5.35;;;1.67;;
69240;SDS011;56352;55.750;13.198;2023-12-22T01:51:43;8.82;;;1.70;;
69240;SDS011;56352;55.750;13.198;2023-12-22T01:54:10;12.90;;;2.67;;
69240;SDS011;56352;55.750;13.198;2023-12-22T01:56:37;17.48;;;1.83;;
69240;SDS011;56352;55.750;13.198;2023-12-22T01:59:04;16.90;;;3.13;;
69240;SDS011;56352;55.750;13.198;2023-12-22T02:01:30;21.05;;;2.40;;
69240;SDS011;56352;55.750;13.198;2023-12-22T02:03:58;12.02;;;2.38;;
69240;SDS011;56352;55.750;13.198;2023-12-22T02:06:25;9.50;;;2.95;;
69240;SDS011;56352;55.750;13.198;2023-12-22T02:08:52;14.63;;;2.72;;
69240;SDS011;56352;55.750;13.198;2023-12-22T02:11:20;8.30;;;2.20;;
69240;SDS011;56352;55.750;13.198;2023-12-22T02:13:47;11.75;;;2.35;;
69240;SDS011;56352;55.750;13.198;2023-12-22T02:18:47;12.75;;;3.00;;
69240;SDS011;56352;55.750;13.198;2023-12-22T02:21:14;17.15;;;1.80;;
69240;SDS011;56352;55.750;13.198;2023-12-22T02:23:41;17.67;;;2.05;;
69240;SDS011;56352;55.750;13.198;2023-12-22T02:26:32;15.38;;;2.67;;
69240;SDS011;56352;55.750;13.198;2023-12-22T02:28:55;12.18;;;1.90;;
69240;SDS011;56352;55.750;13.198;2023-12-22T02:31:27;10.68;;;1.73;;
69240;SDS011;56352;55.750;13.198;2023-12-22T02:34:12;10.73;;;2.08;;
69240;SDS011;56352;55.750;13.198;2023-12-22T02:36:40;9.77;;;2.28;;
69240;SDS011;56352;55.750;13.198;2023-12-22T02:39:08;13.05;;;1.70;;
69240;SDS011;56352;55.750;13.198;2023-12-22T02:41:37;15.63;;;2.55;;
69240;SDS011;56352;55.750;13.198;2023-12-22T02:44:04;10.88;;;2.20;;
69240;SDS011;56352;55.750;13.198;2023-12-22T02:46:30;9.68;;;2.08;;
69240;SDS011;56352;55.750;13.198;2023-12-22T02:48:57;11.80;;;2.03;;
69240;SDS011;56352;55.750;13.198;2023-12-22T02:51:24;9.43;;;2.03;;
69240;SDS011;56352;55.750;13.198;2023-12-22T02:53:51;12.40;;;2.10;;
69240;SDS011;56352;55.750;13.198;2023-12-22T02:56:17;10.35;;;2.35;;
69240;SDS011;56352;55.750;13.198;2023-12-22T02:58:44;12.95;;;2.08;;
69240;SDS011;56352;55.750;13.198;2023-12-22T03:01:11;10.95;;;1.95;;
69240;SDS011;56352;55.750;13.198;2023-12-22T03:03:37;7.72;;;2.05;;
69240;SDS011;56352;55.750;13.198;2023-12-22T03:06:04;15.85;;;2.08;;
69240;SDS011;56352;55.750;13.198;2023-12-22T03:08:30;10.00;;;2.45;;
69240;SDS011;56352;55.750;13.198;2023-12-22T03:10:57;12.98;;;2.00;;
69240;SDS011;56352;55.750;13.198;2023-12-22T03:13:24;6.22;;;1.55;;
69240;SDS011;56352;55.750;13.198;2023-12-22T03:15:50;10.90;;;1.40;;
69240;SDS011;56352;55.750;13.198;2023-12-22T03:18:17;11.43;;;1.80;;
69240;SDS011;56352;55.750;13.198;2023-12-22T03:20:44;6.93;;;1.70;;
69240;SDS011;56352;55.750;13.198;2023-12-22T03:23:11;3.13;;;1.02;;
69240;SDS011;56352;55.750;13.198;2023-12-22T03:25:38;8.57;;;1.75;;
69240;SDS011;56352;55.750;13.198;2023-12-22T03:28:04;11.23;;;1.65;;
69240;SDS011;56352;55.750;13.198;2023-12-22T03:30:31;13.73;;;2.35;;
69240;SDS011;56352;55.750;13.198;2023-12-22T03:32:58;8.45;;;1.90;;
69240;SDS011;56352;55.750;13.198;2023-12-22T03:35:24;14.00;;;2.20;;
69240;SDS011;56352;55.750;13.198;2023-12-22T03:37:51;8.88;;;2.10;;
69240;SDS011;56352;55.750;13.198;2023-12-22T03:40:19;11.65;;;2.03;;
69240;SDS011;56352;55.750;13.198;2023-12-22T03:42:48;12.00;;;1.60;;
69240;SDS011;56352;55.750;13.198;2023-12-22T03:45:15;7.90;;;1.70;;
69240;SDS011;56352;55.750;13.198;2023-12-22T03:47:41;10.13;;;1.85;;
69240;SDS011;56352;55.750;13.198;2023-12-22T03:50:08;10.00;;;1.42;;
69240;SDS011;56352;55.750;13.198;2023-12-22T03:52:35;6.30;;;1.42;;
69240;SDS011;56352;55.750;13.198;2023-12-22T03:55:02;8.02;;;1.60;;
69240;SDS011;56352;55.750;13.198;2023-12-22T03:57:29;7.95;;;1.02;;
69240;SDS011;56352;55.750;13.198;2023-12-22T03:59:55;6.00;;;1.30;;
69240;SDS011;56352;55.750;13.198;2023-12-22T04:02:22;5.40;;;1.10;;
69240;SDS011;56352;55.750;13.198;2023-12-22T04:04:49;9.20;;;1.40;;
69240;SDS011;56352;55.750;13.198;2023-12-22T04:07:15;5.28;;;1.23;;
69240;SDS011;56352;55.750;13.198;2023-12-22T04:09:42;8.30;;;1.38;;
69240;SDS011;56352;55.750;13.198;2023-12-22T04:12:09;4.00;;;0.93;;
69240;SDS011;56352;55.750;13.198;2023-12-22T04:14:35;8.50;;;1.67;;
69240;SDS011;56352;55.750;13.198;2023-12-22T04:17:02;10.77;;;1.85;;
69240;SDS011;56352;55.750;13.198;2023-12-22T04:19:29;7.40;;;1.50;;
69240;SDS011;56352;55.750;13.198;2023-12-22T04:21:56;12.15;;;1.83;;
69240;SDS011;56352;55.750;13.198;2023-12-22T04:24:22;5.88;;;1.20;;
69240;SDS011;56352;55.750;13.198;2023-12-22T04:26:49;11.75;;;1.20;;
69240;SDS011;56352;55.750;13.198;2023-12-22T04:29:16;12.68;;;1.85;;
69240;SDS011;56352;55.750;13.198;2023-12-22T04:31:42;6.55;;;1.35;;
69240;SDS011;56352;55.750;13.198;2023-12-22T04:34:09;5.35;;;1.00;;
69240;SDS011;56352;55.750;13.198;2023-12-22T04:36:35;8.25;;;1.80;;
69240;SDS011;56352;55.750;13.198;2023-12-22T04:39:02;7.55;;;1.15;;
69240;SDS011;56352;55.750;13.198;2023-12-22T04:41:29;10.02;;;1.73;;
69240;SDS011;56352;55.750;13.198;2023-12-22T04:43:55;12.68;;;1.35;;
69240;SDS011;56352;55.750;13.198;2023-12-22T04:46:22;9.43;;;1.60;;
69240;SDS011;56352;55.750;13.198;2023-12-22T04:48:49;6.88;;;1.15;;
69240;SDS011;56352;55.750;13.198;2023-12-22T04:51:16;7.20;;;1.23;;
69240;SDS011;56352;55.750;13.198;2023-12-22T04:53:42;7.88;;;1.38;;
69240;SDS011;56352;55.750;13.198;2023-12-22T04:56:09;7.95;;;1.55;;
69240;SDS011;56352;55.750;13.198;2023-12-22T04:58:36;7.22;;;1.63;;
69240;SDS011;56352;55.750;13.198;2023-12-22T05:01:02;9.02;;;1.52;;
69240;SDS011;56352;55.750;13.198;2023-12-22T05:03:29;7.50;;;1.15;;
69240;SDS011;56352;55.750;13.198;2023-12-22T05:05:56;8.85;;;1.83;;
69240;SDS011;56352;55.750;13.198;2023-12-22T05:08:22;9.07;;;1.50;;
69240;SDS011;56352;55.750;13.198;2023-12-22T05:10:49;10.00;;;1.95;;
69240;SDS011;56352;55.750;13.198;2023-12-22T05:13:16;8.55;;;1.67;;
69240;SDS011;56352;55.750;13.198;2023-12-22T05:15:43;11.52;;;1.90;;
69240;SDS011;56352;55.750;13.198;2023-12-22T05:18:09;7.15;;;1.77;;
69240;SDS011;56352;55.750;13.198;2023-12-22T05:20:36;7.07;;;1.30;;
69240;SDS011;56352;55.750;13.198;2023-12-22T05:23:03;7.30;;;1.77;;
69240;SDS011;56352;55.750;13.198;2023-12-22T05:48:49;8.48;;;1.60;;
69240;SDS011;56352;55.750;13.198;2023-12-22T05:51:19;3.10;;;1.30;;
69240;SDS011;56352;55.750;13.198;2023-12-22T05:53:45;7.32;;;1.33;;
69240;SDS011;56352;55.750;13.198;2023-12-22T05:56:20;7.63;;;1.55;;
69240;SDS011;56352;55.750;13.198;2023-12-22T05:58:48;4.80;;;1.20;;
69240;SDS011;56352;55.750;13.198;2023-12-22T06:01:15;4.75;;;1.10;;
69240;SDS011;56352;55.750;13.198;2023-12-22T06:03:42;4.85;;;1.02;;
69240;SDS011;56352;55.750;13.198;2023-12-22T06:06:09;3.55;;;1.05;;
69240;SDS011;56352;55.750;13.198;2023-12-22T06:08:36;7.68;;;1.20;;
69240;SDS011;56352;55.750;13.198;2023-12-22T06:11:03;4.13;;;1.30;;
69240;SDS011;56352;55.750;13.198;2023-12-22T06:13:29;8.07;;;1.08;;
69240;SDS011;56352;55.750;13.198;2023-12-22T06:15:56;7.07;;;1.33;;
69240;SDS011;56352;55.750;13.198;2023-12-22T06:18:23;12.38;;;1.52;;
69240;SDS011;56352;55.750;13.198;2023-12-22T06:20:49;13.63;;;1.80;;
69240;SDS011;56352;55.750;13.198;2023-12-22T06:23:16;4.88;;;0.98;;
69240;SDS011;56352;55.750;13.198;2023-12-22T06:25:43;5.00;;;1.10;;
69240;SDS011;56352;55.750;13.198;2023-12-22T06:28:09;10.30;;;2.10;;
69240;SDS011;56352;55.750;13.198;2023-12-22T06:30:36;5.60;;;1.30;;
69240;SDS011;56352;55.750;13.198;2023-12-22T06:33:02;8.38;;;1.40;;
69240;SDS011;56352;55.750;13.198;2023-12-22T06:35:29;2.05;;;1.20;;
69240;SDS011;56352;55.750;13.198;2023-12-22T06:37:57;5.65;;;1.83;;
69240;SDS011;56352;55.750;13.198;2023-12-22T06:40:27;5.75;;;1.00;;
69240;SDS011;56352;55.750;13.198;2023-12-22T06:42:54;8.65;;;1.48;;
69240;SDS011;56352;55.750;13.198;2023-12-22T06:45:20;8.85;;;1.35;;
69240;SDS011;56352;55.750;13.198;2023-12-22T06:47:47;3.20;;;1.38;;
69240;SDS011;56352;55.750;13.198;2023-12-22T06:50:14;8.43;;;1.55;;
69240;SDS011;56352;55.750;13.198;2023-12-22T06:52:40;4.28;;;1.35;;
69240;SDS011;56352;55.750;13.198;2023-12-22T06:55:07;5.70;;;1.38;;
69240;SDS011;56352;55.750;13.198;2023-12-22T06:57:34;5.07;;;1.17;;
69240;SDS011;56352;55.750;13.198;2023-12-22T07:00:02;8.57;;;1.90;;
69240;SDS011;56352;55.750;13.198;2023-12-22T07:02:28;5.40;;;1.73;;
69240;SDS011;56352;55.750;13.198;2023-12-22T07:07:31;12.65;;;2.45;;
69240;SDS011;56352;55.750;13.198;2023-12-22T07:10:00;8.77;;;2.03;;
69240;SDS011;56352;55.750;13.198;2023-12-22T07:12:27;6.90;;;1.75;;
69240;SDS011;56352;55.750;13.198;2023-12-22T07:14:54;5.82;;;1.95;;
69240;SDS011;56352;55.750;13.198;2023-12-22T07:17:20;3.10;;;1.33;;
69240;SDS011;56352;55.750;13.198;2023-12-22T07:19:47;5.47;;;1.17;;
69240;SDS011;56352;55.750;13.198;2023-12-22T07:22:14;4.35;;;1.48;;
69240;SDS011;56352;55.750;13.198;2023-12-22T07:24:41;11.40;;;2.00;;
69240;SDS011;56352;55.750;13.198;2023-12-22T07:27:09;4.43;;;1.40;;
69240;SDS011;56352;55.750;13.198;2023-12-22T07:29:37;5.32;;;1.50;;
69240;SDS011;56352;55.750;13.198;2023-12-22T07:32:03;10.10;;;1.95;;
69240;SDS011;56352;55.750;13.198;2023-12-22T07:34:30;10.57;;;1.83;;
69240;SDS011;56352;55.750;13.198;2023-12-22T07:36:59;9.90;;;1.88;;
69240;SDS011;56352;55.750;13.198;2023-12-22T07:39:32;6.35;;;1.80;;
69240;SDS011;56352;55.750;13.198;2023-12-22T07:42:01;8.05;;;1.95;;
69240;SDS011;56352;55.750;13.198;2023-12-22T07:44:27;4.70;;;1.75;;
69240;SDS011;56352;55.750;13.198;2023-12-22T07:46:57;7.20;;;1.70;;
69240;SDS011;56352;55.750;13.198;2023-12-22T07:49:27;7.20;;;1.42;;
69240;SDS011;56352;55.750;13.198;2023-12-22T07:51:55;6.38;;;2.38;;
69240;SDS011;56352;55.750;13.198;2023-12-22T07:54:22;4.97;;;1.50;;
69240;SDS011;56352;55.750;13.198;2023-12-22T07:56:49;6.38;;;1.35;;
69240;SDS011;56352;55.750;13.198;2023-12-22T07:59:16;4.43;;;1.35;;
69240;SDS011;56352;55.750;13.198;2023-12-22T08:01:56;8.00;;;1.58;;
69240;SDS011;56352;55.750;13.198;2023-12-22T08:04:23;7.18;;;1.60;;
69240;SDS011;56352;55.750;13.198;2023-12-22T08:06:49;6.55;;;1.60;;
69240;SDS011;56352;55.750;13.198;2023-12-22T08:09:16;6.63;;;2.08;;
69240;SDS011;56352;55.750;13.198;2023-12-22T08:11:42;6.85;;;2.03;;
69240;SDS011;56352;55.750;13.198;2023-12-22T08:14:12;8.02;;;1.80;;
69240;SDS011;56352;55.750;13.198;2023-12-22T08:16:39;7.13;;;2.05;;
69240;SDS011;56352;55.750;13.198;2023-12-22T08:19:06;6.10;;;2.42;;
69240;SDS011;56352;55.750;13.198;2023-12-22T08:21:32;5.85;;;1.77;;
69240;SDS011;56352;55.750;13.198;2023-12-22T08:24:11;9.70;;;2.35;;
69240;SDS011;56352;55.750;13.198;2023-12-22T08:26:47;6.90;;;1.95;;
69240;SDS011;56352;55.750;13.198;2023-12-22T08:29:14;10.93;;;2.10;;
69240;SDS011;56352;55.750;13.198;2023-12-22T08:31:42;9.20;;;2.30;;
69240;SDS011;56352;55.750;13.198;2023-12-22T08:34:10;8.50;;;1.80;;
69240;SDS011;56352;55.750;13.198;2023-12-22T08:36:37;7.68;;;1.95;;
69240;SDS011;56352;55.750;13.198;2023-12-22T08:39:04;8.18;;;1.80;;
69240;SDS011;56352;55.750;13.198;2023-12-22T08:41:32;5.55;;;1.45;;
69240;SDS011;56352;55.750;13.198;2023-12-22T08:44:03;5.60;;;1.75;;
69240;SDS011;56352;55.750;13.198;2023-12-22T08:46:31;8.13;;;2.20;;
69240;SDS011;56352;55.750;13.198;2023-12-22T08:48:58;10.50;;;2.40;;
69240;SDS011;56352;55.750;13.198;2023-12-22T08:51:26;10.43;;;2.15;;
69240;SDS011;56352;55.750;13.198;2023-12-22T08:53:53;6.85;;;1.88;;
69240;SDS011;56352;55.750;13.198;2023-12-22T08:56:24;14.02;;;2.65;;
69240;SDS011;56352;55.750;13.198;2023-12-22T09:01:18;8.02;;;2.03;;
69240;SDS011;56352;55.750;13.198;2023-12-22T09:03:44;10.73;;;2.38;;
69240;SDS011;56352;55.750;13.198;2023-12-22T09:06:15;6.75;;;2.03;;
69240;SDS011;56352;55.750;13.198;2023-12-22T09:08:42;6.15;;;2.30;;
69240;SDS011;56352;55.750;13.198;2023-12-22T09:11:11;10.82;;;2.40;;
69240;SDS011;56352;55.750;13.198;2023-12-22T09:13:37;5.85;;;2.60;;
69240;SDS011;56352;55.750;13.198;2023-12-22T09:16:05;4.95;;;2.30;;
69240;SDS011;56352;55.750;13.198;2023-12-22T09:18:31;12.52;;;2.28;;
69240;SDS011;56352;55.750;13.198;2023-12-22T09:20:59;10.30;;;2.20;;
69240;SDS011;56352;55.750;13.198;2023-12-22T09:23:25;8.40;;;1.88;;
69240;SDS011;56352;55.750;13.198;2023-12-22T09:25:52;6.72;;;1.80;;
69240;SDS011;56352;55.750;13.198;2023-12-22T09:28:18;7.03;;;2.17;;
69240;SDS011;56352;55.750;13.198;2023-12-22T09:30:45;7.03;;;2.00;;
69240;SDS011;56352;55.750;13.198;2023-12-22T09:33:12;6.43;;;1.95;;
69240;SDS011;56352;55.750;13.198;2023-12-22T09:35:38;9.75;;;2.30;;
69240;SDS011;56352;55.750;13.198;2023-12-22T09:38:08;10.88;;;2.33;;
69240;SDS011;56352;55.750;13.198;2023-12-22T09:40:35;5.85;;;1.70;;
69240;SDS011;56352;55.750;13.198;2023-12-22T09:43:08;9.10;;;2.10;;
69240;SDS011;56352;55.750;13.198;2023-12-22T09:45:35;9.02;;;1.83;;
69240;SDS011;56352;55.750;13.198;2023-12-22T09:48:03;14.88;;;1.98;;
69240;SDS011;56352;55.750;13.198;2023-12-22T09:50:31;5.30;;;1.70;;
69240;SDS011;56352;55.750;13.198;2023-12-22T09:52:59;9.70;;;2.13;;
69240;SDS011;56352;55.750;13.198;2023-12-22T09:55:26;9.68;;;1.60;;
69240;SDS011;56352;55.750;13.198;2023-12-22T09:57:53;8.75;;;2.15;;
69240;SDS011;56352;55.750;13.198;2023-12-22T10:00:20;6.97;;;1.90;;
69240;SDS011;56352;55.750;13.198;2023-12-22T10:02:47;8.52;;;1.80;;
69240;SDS011;56352;55.750;13.198;2023-12-22T10:05:14;11.02;;;2.35;;
69240;SDS011;56352;55.750;13.198;2023-12-22T10:07:41;8.88;;;2.72;;
69240;SDS011;56352;55.750;13.198;2023-12-22T10:10:11;7.60;;;1.98;;
69240;SDS011;56352;55.750;13.198;2023-12-22T10:12:38;6.68;;;1.80;;
69240;SDS011;56352;55.750;13.198;2023-12-22T10:15:05;12.65;;;2.50;;
69240;SDS011;56352;55.750;13.198;2023-12-22T10:17:34;10.10;;;2.28;;
69240;SDS011;56352;55.750;13.198;2023-12-22T10:20:01;7.05;;;1.98;;
69240;SDS011;56352;55.750;13.198;2023-12-22T10:22:27;6.53;;;1.30;;
69240;SDS011;56352;55.750;13.198;2023-12-22T10:24:54;7.00;;;1.75;;
69240;SDS011;56352;55.750;13.198;2023-12-22T10:27:20;6.60;;;1.90;;
69240;SDS011;56352;55.750;13.198;2023-12-22T10:29:50;7.05;;;1.67;;
69240;SDS011;56352;55.750;13.198;2023-12-22T10:32:17;10.15;;;1.48;;
69240;SDS011;56352;55.750;13.198;2023-12-22T10:34:43;5.28;;;1.45;;
69240;SDS011;56352;55.750;13.198;2023-12-22T10:37:10;4.78;;;1.25;;
69240;SDS011;56352;55.750;13.198;2023-12-22T10:39:39;8.73;;;1.20;;
69240;SDS011;56352;55.750;13.198;2023-12-22T10:42:06;7.05;;;1.52;;
69240;SDS011;56352;55.750;13.198;2023-12-22T10:44:32;4.90;;;1.30;;
69240;SDS011;56352;55.750;13.198;2023-12-22T10:47:00;5.05;;;1.45;;
69240;SDS011;56352;55.750;13.198;2023-12-22T10:49:26;4.55;;;1.42;;
69240;SDS011;56352;55.750;13.198;2023-12-22T10:51:53;7.75;;;1.40;;
69240;SDS011;56352;55.750;13.198;2023-12-22T10:54:19;2.08;;;1.08;;
69240;SDS011;56352;55.750;13.198;2023-12-22T10:56:46;4.63;;;1.30;;
69240;SDS011;56352;55.750;13.198;2023-12-22T10:59:12;4.68;;;1.02;;
69240;SDS011;56352;55.750;13.198;2023-12-22T11:01:42;3.55;;;1.33;;
69240;SDS011;56352;55.750;13.198;2023-12-22T11:04:10;4.85;;;1.00;;
69240;SDS011;56352;55.750;13.198;2023-12-22T11:06:41;4.80;;;1.42;;
69240;SDS011;56352;55.750;13.198;2023-12-22T11:09:09;4.75;;;1.27;;
69240;SDS011;56352;55.750;13.198;2023-12-22T11:11:39;5.30;;;1.00;;
69240;SDS011;56352;55.750;13.198;2023-12-22T11:14:06;2.40;;;1.27;;
69240;SDS011;56352;55.750;13.198;2023-12-22T11:16:33;3.75;;;1.05;;
69240;SDS011;56352;55.750;13.198;2023-12-22T11:19:01;6.47;;;1.33;;
69240;SDS011;56352;55.750;13.198;2023-12-22T11:21:29;2.75;;;1.30;;
69240;SDS011;56352;55.750;13.198;2023-12-22T11:23:56;6.95;;;1.40;;
69240;SDS011;56352;55.750;13.198;2023-12-22T11:26:26;4.18;;;1.00;;
69240;SDS011;56352;55.750;13.198;2023-12-22T11:28:52;7.50;;;1.52;;
69240;SDS011;56352;55.750;13.198;2023-12-22T11:31:19;5.00;;;1.25;;
69240;SDS011;56352;55.750;13.198;2023-12-22T11:33:47;3.72;;;1.25;;
69240;SDS011;56352;55.750;13.198;2023-12-22T11:36:29;6.60;;;1.15;;
69240;SDS011;56352;55.750;13.198;2023-12-22T11:38:57;3.50;;;1.30;;
69240;SDS011;56352;55.750;13.198;2023-12-22T11:41:24;6.07;;;1.40;;
69240;SDS011;56352;55.750;13.198;2023-12-22T11:43:51;2.85;;;1.20;;
69240;SDS011;56352;55.750;13.198;2023-12-22T11:46:19;5.80;;;1.73;;
69240;SDS011;56352;55.750;13.198;2023-12-22T11:48:52;3.30;;;1.33;;
69240;SDS011;56352;55.750;13.198;2023-12-22T11:51:19;4.32;;;1.52;;
69240;SDS011;56352;55.750;13.198;2023-12-22T11:53:45;2.72;;;1.20;;
69240;SDS011;56352;55.750;13.198;2023-12-22T11:56:12;4.63;;;1.30;;
69240;SDS011;56352;55.750;13.198;2023-12-22T11:58:40;5.00;;;1.77;;
69240;SDS011;56352;55.750;13.198;2023-12-22T12:01:11;4.85;;;1.35;;
69240;SDS011;56352;55.750;13.198;2023-12-22T12:03:48;5.30;;;1.40;;
69240;SDS011;56352;55.750;13.198;2023-12-22T12:06:16;4.63;;;1.33;;
69240;SDS011;56352;55.750;13.198;2023-12-22T12:08:43;2.67;;;1.20;;
69240;SDS011;56352;55.750;13.198;2023-12-22T12:11:10;4.65;;;1.20;;
69240;SDS011;56352;55.750;13.198;2023-12-22T12:13:39;4.85;;;1.50;;
69240;SDS011;56352;55.750;13.198;2023-12-22T12:16:07;4.30;;;1.35;;
69240;SDS011;56352;55.750;13.198;2023-12-22T12:18:34;3.08;;;1.00;;
69240;SDS011;56352;55.750;13.198;2023-12-22T12:21:01;5.75;;;1.40;;
69240;SDS011;56352;55.750;13.198;2023-12-22T12:23:27;5.53;;;1.88;;
69240;SDS011;56352;55.750;13.198;2023-12-22T12:25:54;8.80;;;1.42;;
69240;SDS011;56352;55.750;13.198;2023-12-22T12:28:28;3.13;;;1.20;;
69240;SDS011;56352;55.750;13.198;2023-12-22T12:30:58;6.03;;;1.55;;
69240;SDS011;56352;55.750;13.198;2023-12-22T12:33:26;6.50;;;1.92;;
69240;SDS011;56352;55.750;13.198;2023-12-22T12:35:53;8.65;;;1.70;;
69240;SDS011;56352;55.750;13.198;2023-12-22T12:38:23;5.95;;;2.05;;
69240;SDS011;56352;55.750;13.198;2023-12-22T12:40:50;5.65;;;1.67;;
69240;SDS011;56352;55.750;13.198;2023-12-22T12:43:17;6.22;;;1.35;;
69240;SDS011;56352;55.750;13.198;2023-12-22T12:45:44;4.20;;;1.30;;
69240;SDS011;56352;55.750;13.198;2023-12-22T12:48:11;6.82;;;1.50;;
69240;SDS011;56352;55.750;13.198;2023-12-22T12:50:42;7.80;;;1.85;;
69240;SDS011;56352;55.750;13.198;2023-12-22T12:53:08;4.80;;;1.50;;
69240;SDS011;56352;55.750;13.198;2023-12-22T12:55:35;5.28;;;1.55;;
69240;SDS011;56352;55.750;13.198;2023-12-22T12:58:02;2.72;;;1.10;;
69240;SDS011;56352;55.750;13.198;2023-12-22T13:00:30;7.00;;;1.40;;
69240;SDS011;56352;55.750;13.198;2023-12-22T13:03:00;5.90;;;1.35;;
69240;SDS011;56352;55.750;13.198;2023-12-22T13:05:29;2.72;;;1.02;;
69240;SDS011;56352;55.750;13.198;2023-12-22T13:08:06;11.73;;;1.73;;
69240;SDS011;56352;55.750;13.198;2023-12-22T13:10:33;3.95;;;1.05;;
69240;SDS011;56352;55.750;13.198;2023-12-22T13:12:59;5.55;;;1.23;;
69240;SDS011;56352;55.750;13.198;2023-12-22T13:15:26;4.22;;;2.08;;
69240;SDS011;56352;55.750;13.198;2023-12-22T13:17:53;4.82;;;1.45;;
69240;SDS011;56352;55.750;13.198;2023-12-22T13:20:20;5.38;;;1.63;;
69240;SDS011;56352;55.750;13.198;2023-12-22T13:22:47;3.13;;;1.10;;
69240;SDS011;56352;55.750;13.198;2023-12-22T13:25:14;5.00;;;1.48;;
69240;SDS011;56352;55.750;13.198;2023-12-22T13:27:47;4.13;;;1.23;;
69240;SDS011;56352;55.750;13.198;2023-12-22T13:30:14;3.83;;;1.08;;
69240;SDS011;56352;55.750;13.198;2023-12-22T13:32:41;5.60;;;1.13;;
69240;SDS011;56352;55.750;13.198;2023-12-22T13:35:07;2.60;;;0.82;;
69240;SDS011;56352;55.750;13.198;2023-12-22T13:37:39;4.63;;;1.67;;
69240;SDS011;56352;55.750;13.198;2023-12-22T13:40:07;6.30;;;1.35;;
69240;SDS011;56352;55.750;13.198;2023-12-22T13:42:34;2.67;;;1.40;;
69240;SDS011;56352;55.750;13.198;2023-12-22T13:45:01;7.20;;;1.95;;
69240;SDS011;56352;55.750;13.198;2023-12-22T13:47:27;7.72;;;1.27;;
69240;SDS011;56352;55.750;13.198;2023-12-22T13:49:56;19.27;;;1.58;;
69240;SDS011;56352;55.750;13.198;2023-12-22T13:52:24;5.43;;;1.40;;
69240;SDS011;56352;55.750;13.198;2023-12-22T13:54:52;4.63;;;1.35;;
69240;SDS011;56352;55.750;13.198;2023-12-22T13:57:22;3.15;;;1.25;;
69240;SDS011;56352;55.750;13.198;2023-12-22T13:59:51;3.38;;;1.13;;
69240;SDS011;56352;55.750;13.198;2023-12-22T14:02:24;2.75;;;1.25;;
69240;SDS011;56352;55.750;13.198;2023-12-22T14:04:51;4.03;;;0.95;;
69240;SDS011;56352;55.750;13.198;2023-12-22T14:07:18;5.10;;;1.25;;
69240;SDS011;56352;55.750;13.198;2023-12-22T14:09:45;6.05;;;1.15;;
69240;SDS011;56352;55.750;13.198;2023-12-22T14:12:11;4.05;;;1.08;;
69240;SDS011;56352;55.750;13.198;2023-12-22T14:14:46;6.25;;;1.35;;
69240;SDS011;56352;55.750;13.198;2023-12-22T14:17:12;3.80;;;1.20;;
69240;SDS011;56352;55.750;13.198;2023-12-22T14:19:39;2.22;;;0.98;;
69240;SDS011;56352;55.750;13.198;2023-12-22T14:22:06;3.58;;;1.08;;
69240;SDS011;56352;55.750;13.198;2023-12-22T14:24:34;2.65;;;1.05;;
69240;SDS011;56352;55.750;13.198;2023-12-22T14:27:00;6.60;;;1.60;;
69240;SDS011;56352;55.750;13.198;2023-12-22T14:29:26;3.63;;;1.55;;
69240;SDS011;56352;55.750;13.198;2023-12-22T14:31:53;4.30;;;1.63;;
69240;SDS011;56352;55.750;13.198;2023-12-22T14:34:20;7.57;;;1.80;;
69240;SDS011;56352;55.750;13.198;2023-12-22T14:36:46;2.28;;;1.17;;
69240;SDS011;56352;55.750;13.198;2023-12-22T14:39:13;2.25;;;1.10;;
69240;SDS011;56352;55.750;13.198;2023-12-22T14:41:40;3.78;;;1.13;;
69240;SDS011;56352;55.750;13.198;2023-12-22T14:44:08;5.63;;;1.00;;
69240;SDS011;56352;55.750;13.198;2023-12-22T14:46:38;3.33;;;1.05;;
69240;SDS011;56352;55.750;13.198;2023-12-22T14:49:05;3.88;;;1.15;;
69240;SDS011;56352;55.750;13.198;2023-12-22T14:51:36;3.28;;;1.33;;
69240;SDS011;56352;55.750;13.198;2023-12-22T14:54:06;3.40;;;1.10;;
69240;SDS011;56352;55.750;13.198;2023-12-22T14:58:59;6.35;;;1.13;;
69240;SDS011;56352;55.750;13.198;2023-12-22T15:01:26;4.80;;;1.38;;
69240;SDS011;56352;55.750;13.198;2023-12-22T15:03:54;5.07;;;0.93;;
69240;SDS011;56352;55.750;13.198;2023-12-22T15:06:21;2.88;;;1.08;;